Time;durP1;ratioP1;P1;durP2;ratioP2;P2;SDS_P1;SDS_P2;PMS_P1;PMS_P2;Temp;Humidity;BMP_temperature;BMP_pressure;BME280_temperature;BME280_humidity;BME280_pressure;Samples;Min_cycle;Max_cycle;Signal;HPM_P1;HPM_P2
2022/04/24 00:01:51;;;;;;;5.40;2.17;;;;;;;10.89;60.43;94349.47;5117187;27;20039;-68
2022/04/24 00:04:16;;;;;;;6.10;2.90;;;;;;;10.80;60.26;94350.28;5119514;27;20031;-68
2022/04/24 00:06:41;;;;;;;7.80;2.60;;;;;;;10.72;60.83;94339.78;5113723;28;20028;-68
2022/04/24 00:09:07;;;;;;;7.80;2.38;;;;;;;10.77;60.75;94344.56;5113802;28;20035;-68
2022/04/24 00:11:33;;;;;;;8.15;2.60;;;;;;;10.75;61.19;94347.28;5113506;27;20032;-68
2022/04/24 00:13:58;;;;;;;7.38;2.47;;;;;;;10.76;60.93;94350.72;5115117;28;20032;-68
2022/04/24 00:16:24;;;;;;;5.35;2.38;;;;;;;10.78;60.99;94356.59;5113541;28;20519;-68
2022/04/24 00:18:49;;;;;;;6.65;2.25;;;;;;;10.73;61.02;94350.03;5096508;28;20110;-68
2022/04/24 00:21:15;;;;;;;6.75;2.95;;;;;;;10.82;60.65;94350.16;5115784;27;20212;-68
2022/04/24 00:23:40;;;;;;;5.68;2.47;;;;;;;10.86;60.75;94360.13;5115572;27;20044;-68
2022/04/24 00:26:05;;;;;;;5.38;2.22;;;;;;;10.86;60.63;94352.31;5114411;27;20513;-68
2022/04/24 00:28:31;;;;;;;5.97;2.58;;;;;;;10.69;61.18;94347.84;5134737;27;20035;-68
2022/04/24 00:30:56;;;;;;;5.28;2.90;;;;;;;10.63;61.65;94374.38;5133902;27;20028;-68
2022/04/24 00:33:22;;;;;;;6.15;3.00;;;;;;;10.52;61.74;94370.16;5135176;27;20023;-68
2022/04/24 00:35:47;;;;;;;6.47;2.60;;;;;;;10.47;62.08;94359.34;5112347;28;20122;-68
2022/04/24 00:38:13;;;;;;;4.18;2.60;;;;;;;10.44;62.06;94365.63;5115400;27;20023;-68
2022/04/24 00:40:38;;;;;;;7.05;2.75;;;;;;;10.25;62.62;94358.66;5113122;28;20028;-68
2022/04/24 00:43:04;;;;;;;6.72;2.95;;;;;;;10.24;62.93;94363.97;5113021;28;20023;-68
2022/04/24 00:45:29;;;;;;;5.45;2.70;;;;;;;10.16;63.05;94364.63;5117605;27;20023;-68
2022/04/24 00:47:56;;;;;;;7.10;3.00;;;;;;;10.14;63.23;94363.97;5130140;27;20095;-68
2022/04/24 00:50:22;;;;;;;7.03;2.85;;;;;;;10.12;63.02;94360.69;5114347;27;20466;-68
2022/04/24 00:52:47;;;;;;;6.35;3.00;;;;;;;10.14;62.98;94358.78;5114128;27;20054;-68
2022/04/24 00:55:12;;;;;;;7.63;3.22;;;;;;;10.09;63.33;94355.75;5122120;27;20541;-68
2022/04/24 00:57:40;;;;;;;7.13;3.00;;;;;;;10.18;62.82;94360.13;5110818;28;20050;-67
2022/04/24 01:00:07;;;;;;;4.28;2.70;;;;;;;10.17;62.58;94358.50;5093103;28;20394;-68
2022/04/24 01:02:33;;;;;;;7.30;2.63;;;;;;;10.17;62.81;94362.84;5113482;28;20382;-68
2022/04/24 01:04:58;;;;;;;8.25;2.90;;;;;;;10.14;62.82;94366.56;5112741;27;20087;-68
2022/04/24 01:07:24;;;;;;;5.63;2.67;;;;;;;10.06;63.09;94361.22;5112559;28;20028;-68
2022/04/24 01:09:49;;;;;;;6.82;2.88;;;;;;;10.12;62.80;94365.88;5112438;28;20492;-68
2022/04/24 01:12:15;;;;;;;7.85;2.92;;;;;;;10.14;62.70;94368.31;5116072;27;20038;-69
2022/04/24 01:14:41;;;;;;;5.97;3.00;;;;;;;10.14;62.44;94358.78;5115805;27;20485;-68
2022/04/24 01:17:06;;;;;;;4.93;2.75;;;;;;;10.11;62.73;94364.22;5133222;27;20030;-68
2022/04/24 01:19:32;;;;;;;7.57;3.00;;;;;;;10.12;62.74;94370.25;5115581;27;20030;-68
2022/04/24 01:21:57;;;;;;;8.77;3.28;;;;;;;10.11;62.97;94373.78;5098205;28;20035;-68
2022/04/24 01:24:24;;;;;;;7.25;3.22;;;;;;;10.02;63.03;94372.81;5112199;28;20570;-68
2022/04/24 01:26:50;;;;;;;8.18;2.85;;;;;;;9.92;63.62;94377.16;5112254;28;20036;-68
2022/04/24 01:29:16;;;;;;;5.97;2.92;;;;;;;9.81;63.76;94383.31;5113834;27;20536;-68
2022/04/24 01:31:44;;;;;;;8.68;3.47;;;;;;;9.74;64.28;94387.38;5112033;27;20032;-68
2022/04/24 01:34:09;;;;;;;7.35;3.38;;;;;;;9.70;64.30;94391.19;5111887;28;20028;-68
2022/04/24 01:36:35;;;;;;;7.20;3.15;;;;;;;9.71;64.52;94398.81;5113141;28;20039;-68
2022/04/24 01:39:00;;;;;;;9.30;3.58;;;;;;;9.56;65.12;94395.78;5114290;27;20038;-68
2022/04/24 01:41:26;;;;;;;5.22;3.40;;;;;;;9.58;65.13;94406.84;5113139;28;20035;-68
2022/04/24 01:43:51;;;;;;;9.13;3.92;;;;;;;9.58;64.67;94406.84;5113281;28;20023;-68
2022/04/24 01:46:17;;;;;;;7.55;4.03;;;;;;;9.47;65.19;94401.75;5118115;27;20027;-68
2022/04/24 01:48:42;;;;;;;9.63;4.03;;;;;;;9.38;65.83;94399.94;5130541;27;20041;-68
2022/04/24 01:51:08;;;;;;;8.52;3.90;;;;;;;9.27;65.89;94395.63;5132245;27;20424;-68
2022/04/24 01:53:34;;;;;;;8.23;3.97;;;;;;;9.12;66.55;94395.16;5132217;27;20039;-68
2022/04/24 01:56:00;;;;;;;6.28;3.75;;;;;;;9.24;66.09;94406.28;5101157;28;20066;-69
2022/04/24 01:58:26;;;;;;;9.27;4.15;;;;;;;9.26;66.22;94404.38;5111497;28;20038;-68
2022/04/24 02:00:51;;;;;;;7.72;3.88;;;;;;;9.22;66.44;94397.81;5094584;28;20331;-68
2022/04/24 02:03:17;;;;;;;9.55;3.75;;;;;;;9.25;66.02;94396.72;5111381;28;20106;-68
2022/04/24 02:05:43;;;;;;;7.13;4.18;;;;;;;9.25;66.37;94396.72;5130682;27;20035;-69
2022/04/24 02:08:08;;;;;;;9.55;4.03;;;;;;;9.29;65.87;94403.31;5114733;27;20035;-68
2022/04/24 02:10:34;;;;;;;6.90;4.32;;;;;;;9.27;65.93;94393.06;5131923;27;20091;-68
2022/04/24 02:12:59;;;;;;;6.03;3.97;;;;;;;9.29;65.74;94404.13;5131646;27;20023;-68
2022/04/24 02:15:24;;;;;;;7.05;3.70;;;;;;;9.31;65.81;94396.22;5114655;27;20428;-68
2022/04/24 02:17:50;;;;;;;7.85;3.60;;;;;;;9.32;65.70;94398.66;5131887;27;20540;-68
2022/04/24 02:20:15;;;;;;;9.20;3.85;;;;;;;9.30;65.89;94397.97;5132958;27;20031;-68
2022/04/24 02:22:41;;;;;;;8.13;3.60;;;;;;;9.28;65.90;94406.84;5093161;28;20031;-68
2022/04/24 02:25:07;;;;;;;8.13;4.00;;;;;;;9.26;65.93;94409.56;5094204;28;20036;-68
2022/04/24 02:27:34;;;;;;;9.57;3.90;;;;;;;9.27;65.86;94408.59;5111077;28;20458;-68
2022/04/24 02:29:59;;;;;;;5.75;3.85;;;;;;;9.18;66.18;94396.44;5094198;28;20061;-68
2022/04/24 02:32:25;;;;;;;8.80;3.97;;;;;;;9.14;66.36;94395.88;5110910;28;20048;-68
2022/04/24 02:34:50;;;;;;;6.85;3.72;;;;;;;9.10;66.23;94397.06;5127758;27;20085;-68
2022/04/24 02:37:15;;;;;;;5.63;3.80;;;;;;;9.09;66.22;94402.38;5111616;27;20031;-68
2022/04/24 02:39:41;;;;;;;9.73;4.57;;;;;;;9.00;66.23;94383.25;5126408;27;20027;-68
2022/04/24 02:42:06;;;;;;;6.03;3.55;;;;;;;9.04;66.17;94394.97;5131338;27;20030;-68
2022/04/24 02:44:32;;;;;;;8.93;3.88;;;;;;;9.08;66.21;94396.38;5131073;27;20031;-68
2022/04/24 02:46:57;;;;;;;8.25;4.35;;;;;;;9.11;66.29;94403.06;5132888;27;20042;-68
2022/04/24 02:49:23;;;;;;;5.05;3.58;;;;;;;9.03;66.11;94395.13;5132787;27;20042;-68
2022/04/24 02:51:48;;;;;;;5.82;3.70;;;;;;;9.04;66.17;94402.75;5131037;27;20035;-68
2022/04/24 02:54:13;;;;;;;9.00;4.22;;;;;;;8.98;66.46;94405.88;5131250;27;20073;-68
2022/04/24 02:56:39;;;;;;;7.05;3.80;;;;;;;9.06;66.18;94405.25;5130935;27;20027;-68
2022/04/24 02:59:04;;;;;;;6.45;3.67;;;;;;;9.06;66.41;94393.09;5132597;27;20050;-68
2022/04/24 03:01:30;;;;;;;8.02;4.10;;;;;;;9.08;66.00;94406.75;5132214;27;20023;-68
2022/04/24 03:03:56;;;;;;;9.90;4.80;;;;;;;9.11;66.07;94405.66;5131032;27;20027;-69
2022/04/24 03:06:22;;;;;;;9.10;4.03;;;;;;;9.04;66.07;94407.94;5106270;27;20045;-68
2022/04/24 03:08:47;;;;;;;8.90;5.00;;;;;;;9.01;65.82;94402.19;5104843;27;20457;-68
2022/04/24 03:11:16;;;;;;;9.57;7.13;;;;;;;9.03;65.74;94413.28;5130765;27;20019;-68
2022/04/24 03:13:42;;;;;;;8.23;4.50;;;;;;;8.99;66.29;94420.44;5130687;27;20026;-68
2022/04/24 03:16:08;;;;;;;8.50;4.32;;;;;;;9.03;66.20;94424.44;5130705;27;20059;-68
2022/04/24 03:18:33;;;;;;;6.50;4.00;;;;;;;9.00;66.21;94424.69;5131926;27;20092;-68
2022/04/24 03:20:59;;;;;;;6.70;3.83;;;;;;;8.85;66.54;94406.03;5131794;27;20042;-68
2022/04/24 03:23:24;;;;;;;6.50;3.80;;;;;;;8.90;66.83;94429.00;5130302;27;20047;-68
2022/04/24 03:25:50;;;;;;;6.18;3.55;;;;;;;8.84;66.73;94422.53;5131775;27;20027;-68
2022/04/24 03:28:18;;;;;;;7.60;3.88;;;;;;;8.67;67.43;94428.28;5131944;27;20035;-68
2022/04/24 03:30:44;;;;;;;8.38;3.83;;;;;;;8.78;66.90;94441.19;5113815;28;20053;-68
2022/04/24 03:33:10;;;;;;;7.43;3.75;;;;;;;8.71;67.13;94448.59;5130566;28;20496;-68
2022/04/24 03:35:35;;;;;;;9.77;4.13;;;;;;;8.63;67.33;94452.78;5113389;28;20412;-68
2022/04/24 03:38:01;;;;;;;7.65;4.00;;;;;;;8.66;67.28;94448.19;5130490;28;20055;-68
2022/04/24 03:40:26;;;;;;;11.13;4.90;;;;;;;8.67;66.87;94454.19;5126077;27;20537;-68
2022/04/24 03:42:52;;;;;;;7.20;3.85;;;;;;;8.71;66.87;94453.78;5127954;27;20029;-68
2022/04/24 03:45:17;;;;;;;9.10;3.90;;;;;;;8.66;67.07;94444.75;5129933;28;20019;-68
2022/04/24 03:47:43;;;;;;;6.65;3.83;;;;;;;8.71;67.13;94445.22;5111482;28;20039;-67
2022/04/24 03:50:08;;;;;;;6.05;3.80;;;;;;;8.68;67.18;94456.63;5131062;27;20027;-68
2022/04/24 03:52:34;;;;;;;9.20;5.03;;;;;;;8.74;66.75;94457.91;5128104;27;20461;-68
2022/04/24 03:54:59;;;;;;;8.13;4.75;;;;;;;8.72;66.67;94454.63;5129093;28;20023;-68
2022/04/24 03:57:25;;;;;;;15.95;10.38;;;;;;;8.71;66.85;94460.75;5129811;28;20030;-68
2022/04/24 03:59:50;;;;;;;21.40;16.00;;;;;;;8.72;66.53;94465.00;5128467;27;20023;-68
2022/04/24 04:02:16;;;;;;;20.10;12.43;;;;;;;8.71;66.83;94461.56;5128383;28;20035;-68
2022/04/24 04:04:42;;;;;;;17.02;8.63;;;;;;;8.66;66.97;94453.38;5128228;27;20088;-68
2022/04/24 04:07:07;;;;;;;16.17;7.47;;;;;;;8.68;66.55;94448.88;5126398;27;20019;-69
2022/04/24 04:09:33;;;;;;;12.30;7.65;;;;;;;8.77;66.55;94454.25;5112706;28;20091;-68
2022/04/24 04:11:58;;;;;;;10.30;6.80;;;;;;;8.75;66.38;94451.78;5115609;28;20027;-68
2022/04/24 04:14:24;;;;;;;11.10;5.50;;;;;;;8.65;66.92;94454.28;5103242;28;20516;-68
2022/04/24 04:16:49;;;;;;;10.00;5.60;;;;;;;8.59;67.42;94452.22;5109338;28;20481;-68
2022/04/24 04:19:15;;;;;;;8.70;6.40;;;;;;;8.56;67.11;94436.09;5111651;28;20389;-68
2022/04/24 04:21:41;;;;;;;8.13;5.38;;;;;;;8.69;66.95;94441.91;5122615;28;20544;-68
2022/04/24 04:24:08;;;;;;;10.80;4.05;;;;;;;9.20;65.68;94448.97;5130217;27;20042;-68
2022/04/24 04:26:34;;;;;;;10.27;3.97;;;;;;;9.63;64.58;94453.13;5112554;28;20397;-69
2022/04/24 04:28:59;;;;;;;7.65;4.53;;;;;;;10.15;62.84;94451.25;5130100;28;20038;-68
2022/04/24 04:31:24;;;;;;;6.78;3.88;;;;;;;10.57;61.93;94452.84;5130108;28;20389;-69
2022/04/24 04:33:50;;;;;;;6.68;4.22;;;;;;;10.58;61.57;94460.50;5131041;27;20032;-68
2022/04/24 04:36:16;;;;;;;6.63;3.75;;;;;;;11.30;58.69;94450.63;5133759;27;20035;-68
2022/04/24 04:38:42;;;;;;;8.65;4.15;;;;;;;11.61;57.84;94449.41;5134810;27;20030;-68
2022/04/24 04:41:07;;;;;;;8.13;4.32;;;;;;;12.15;56.16;94451.44;5133986;27;20027;-68
2022/04/24 04:43:32;;;;;;;9.27;4.30;;;;;;;12.64;54.95;94447.53;5105324;28;20505;-68
2022/04/24 04:45:58;;;;;;;13.18;7.93;;;;;;;13.45;53.89;94451.00;5127721;27;20035;-68
2022/04/24 04:48:23;;;;;;;12.95;7.82;;;;;;;13.97;52.41;94451.78;5116329;27;20459;-68
2022/04/24 04:50:49;;;;;;;12.15;8.10;;;;;;;14.22;51.49;94451.88;5116400;27;20441;-68
2022/04/24 04:53:15;;;;;;;12.85;7.78;;;;;;;14.34;50.07;94458.44;5114207;27;20035;-72
2022/04/24 04:55:40;;;;;;;14.70;11.95;;;;;;;14.73;48.79;94416.91;5112721;28;20470;-74
2022/04/24 04:58:06;;;;;;;10.25;7.03;;;;;;;15.30;47.80;94465.00;5112693;27;20493;-70
2022/04/24 05:00:31;;;;;;;9.85;5.13;;;;;;;15.49;47.32;94459.44;5096971;27;20027;-69
2022/04/24 05:02:56;;;;;;;10.30;5.53;;;;;;;15.81;47.19;94474.28;5129312;27;20023;-74
2022/04/24 05:05:22;;;;;;;11.73;6.10;;;;;;;15.67;47.08;94474.13;5116015;27;20031;-71
2022/04/24 05:07:47;;;;;;;12.75;6.50;;;;;;;15.58;47.31;94481.19;5131230;27;20034;-71
2022/04/24 05:10:13;;;;;;;8.32;4.57;;;;;;;15.01;48.87;94481.97;5132258;27;20027;-70
2022/04/24 05:12:38;;;;;;;10.77;4.28;;;;;;;14.87;49.56;94486.03;5113434;27;20031;-70
2022/04/24 05:15:05;;;;;;;8.13;4.07;;;;;;;14.91;49.43;94479.53;5133103;27;20051;-70
2022/04/24 05:17:30;;;;;;;6.97;4.25;;;;;;;14.82;49.72;94482.28;5112061;28;20020;-70
2022/04/24 05:19:56;;;;;;;8.88;5.07;;;;;;;14.75;49.43;94490.78;5128988;27;20462;-70
2022/04/24 05:22:22;;;;;;;9.40;5.10;;;;;;;14.56;50.15;94483.22;5130063;27;20023;-70
2022/04/24 05:24:48;;;;;;;8.48;5.05;;;;;;;14.63;50.50;94493.88;5132635;27;20448;-70
2022/04/24 05:27:14;;;;;;;11.65;5.53;;;;;;;14.59;50.43;94490.72;5132789;27;20077;-69
2022/04/24 05:29:42;;;;;;;10.73;5.53;;;;;;;14.62;50.56;94484.38;5130230;27;20513;-70
2022/04/24 05:32:08;;;;;;;11.35;6.22;;;;;;;14.72;50.26;94493.72;5127521;27;20031;-69
2022/04/24 05:34:33;;;;;;;10.38;6.38;;;;;;;14.75;50.14;94488.16;5115054;27;20031;-71
2022/04/24 05:36:59;;;;;;;15.27;8.52;;;;;;;14.72;50.41;94488.47;5131661;27;20023;-72
2022/04/24 05:39:24;;;;;;;16.95;7.93;;;;;;;14.66;50.92;94486.50;5105033;28;20484;-70
2022/04/24 05:41:50;;;;;;;9.25;6.40;;;;;;;14.60;50.80;94478.47;5123928;27;20030;-69
2022/04/24 05:44:15;;;;;;;8.57;5.10;;;;;;;14.67;50.97;94479.47;5122386;27;20032;-70
2022/04/24 05:46:41;;;;;;;9.38;5.40;;;;;;;14.85;50.89;94476.72;5122046;27;20043;-69
2022/04/24 05:49:06;;;;;;;8.13;4.40;;;;;;;14.94;50.26;94465.31;5119285;27;20020;-69
2022/04/24 05:51:33;;;;;;;9.55;4.78;;;;;;;15.05;49.80;94474.66;5125807;27;20027;-70
2022/04/24 05:53:59;;;;;;;8.77;5.07;;;;;;;15.06;50.00;94478.88;5115265;27;20031;-69
2022/04/24 05:56:25;;;;;;;10.52;4.63;;;;;;;15.01;50.17;94476.75;5131705;27;20084;-69
2022/04/24 05:58:51;;;;;;;7.32;4.40;;;;;;;14.85;50.10;94481.94;5132017;27;20031;-69
2022/04/24 06:01:16;;;;;;;12.15;5.82;;;;;;;14.86;50.90;94479.19;5131563;27;20476;-69
2022/04/24 06:03:43;;;;;;;13.80;8.60;;;;;;;14.97;51.13;94470.22;5131904;27;20412;-69
2022/04/24 06:06:09;;;;;;;16.65;7.90;;;;;;;14.96;51.07;94463.38;5131753;27;20118;-68
2022/04/24 06:08:34;;;;;;;13.23;6.47;;;;;;;15.06;50.78;94464.00;5130677;27;20106;-71
2022/04/24 06:11:00;;;;;;;10.93;4.85;;;;;;;15.09;50.34;94458.44;5129026;27;20453;-70
2022/04/24 06:13:26;;;;;;;12.27;5.30;;;;;;;15.12;50.41;94462.53;5124256;27;20055;-69
2022/04/24 06:15:55;;;;;;;10.48;5.68;;;;;;;15.17;50.14;94461.06;5094103;28;20035;-70
2022/04/24 06:18:20;;;;;;;12.90;6.90;;;;;;;15.25;50.04;94451.59;5122629;27;20063;-70
2022/04/24 06:20:46;;;;;;;10.63;5.30;;;;;;;15.26;50.10;94455.84;5111098;28;20039;-70
2022/04/24 06:23:11;;;;;;;7.13;4.07;;;;;;;15.17;50.11;94455.03;5116228;27;20054;-73
2022/04/24 06:25:38;;;;;;;8.95;4.60;;;;;;;15.20;50.84;94458.13;5110574;28;20125;-71
2022/04/24 06:28:03;;;;;;;14.35;8.15;;;;;;;15.38;49.94;94457.97;5116232;27;20059;-71
2022/04/24 06:30:30;;;;;;;11.90;6.18;;;;;;;15.45;49.91;94452.06;5095870;28;20040;-72
2022/04/24 06:32:57;;;;;;;16.02;9.63;;;;;;;15.46;50.36;94453.69;5113990;27;20027;-72
2022/04/24 06:35:23;;;;;;;18.42;10.80;;;;;;;15.55;49.73;94464.00;5132604;27;20032;-71
2022/04/24 06:37:55;;;;;;;11.75;6.43;;;;;;;15.65;49.53;94453.31;5096923;28;20315;-73
2022/04/24 06:40:23;;;;;;;6.05;4.25;;;;;;;15.78;49.56;94455.47;5095232;28;20417;-73
2022/04/24 06:42:54;;;;;;;6.00;3.75;;;;;;;15.96;49.08;94456.06;5120238;27;20549;-73
2022/04/24 06:45:25;;;;;;;17.27;10.45;;;;;;;16.06;48.18;94456.69;5112149;28;20080;-73
2022/04/24 06:47:52;;;;;;;17.35;10.05;;;;;;;16.09;48.68;94443.25;5093869;28;20055;-73
2022/04/24 06:50:18;;;;;;;8.80;5.05;;;;;;;16.14;47.96;94431.47;5076910;28;20032;-81
2022/04/24 06:52:43;;;;;;;5.88;3.75;;;;;;;16.19;48.12;94450.13;5098421;28;20049;-75
2022/04/24 06:55:09;;;;;;;7.57;3.80;;;;;;;16.31;48.06;94451.34;5093550;28;20166;-75
2022/04/24 06:57:34;;;;;;;11.85;6.63;;;;;;;16.40;47.55;94444.28;5111109;28;20034;-76
2022/04/24 07:00:00;;;;;;;9.45;4.10;;;;;;;16.48;47.93;94447.66;5093340;28;20028;-75
2022/04/24 07:02:25;;;;;;;7.32;3.95;;;;;;;16.60;47.21;94442.03;5129085;27;20054;-75
2022/04/24 07:04:51;;;;;;;7.45;3.80;;;;;;;16.61;46.97;94439.25;5130718;27;20047;-73
2022/04/24 07:07:16;;;;;;;9.52;3.80;;;;;;;16.64;47.78;94438.09;5129275;27;20023;-75
2022/04/24 07:09:41;;;;;;;10.68;3.83;;;;;;;16.62;47.40;94429.56;5128612;27;20036;-73
2022/04/24 07:12:08;;;;;;;8.52;3.78;;;;;;;16.71;47.08;94428.53;5123365;27;20026;-70
2022/04/24 07:14:33;;;;;;;9.02;3.75;;;;;;;16.82;47.05;94433.41;5109006;27;20042;-73
2022/04/24 07:16:58;;;;;;;6.57;3.65;;;;;;;16.75;46.82;94433.25;5126236;27;19915;-71
2022/04/24 07:19:24;;;;;;;11.60;3.78;;;;;;;16.63;47.16;94420.69;5129428;27;20038;-71
2022/04/24 07:21:51;;;;;;;18.77;8.98;;;;;;;16.74;47.89;94422.94;5117536;27;20040;-71
2022/04/24 07:24:16;;;;;;;11.38;5.00;;;;;;;16.77;47.66;94427.88;5123263;27;20111;-71
2022/04/24 07:26:42;;;;;;;25.70;19.38;;;;;;;16.83;47.27;94432.41;5111406;28;20047;-71
2022/04/24 07:29:08;;;;;;;10.65;6.35;;;;;;;16.97;46.64;94420.34;5081709;27;20042;-70
2022/04/24 07:31:33;;;;;;;15.23;11.00;;;;;;;17.07;46.76;94420.09;5130592;28;20087;-70
2022/04/24 07:33:59;;;;;;;10.10;5.10;;;;;;;17.17;46.64;94416.25;5128715;28;20027;-70
2022/04/24 07:36:24;;;;;;;7.78;4.10;;;;;;;17.21;46.37;94406.19;5113395;28;20023;-70
2022/04/24 07:38:50;;;;;;;6.93;3.83;;;;;;;17.25;45.86;94409.31;5130498;28;20114;-70
2022/04/24 07:41:16;;;;;;;17.13;8.95;;;;;;;17.40;46.22;94408.31;5128783;28;20019;-72
2022/04/24 07:43:48;;;;;;;9.23;3.92;;;;;;;17.49;45.36;94410.88;5096411;28;20071;-71
2022/04/24 07:46:13;;;;;;;7.80;3.65;;;;;;;17.55;44.41;94404.91;5126642;27;20100;-70
2022/04/24 07:48:39;;;;;;;8.48;3.40;;;;;;;17.57;45.08;94413.44;5130394;28;20485;-70
2022/04/24 07:51:04;;;;;;;8.30;3.88;;;;;;;17.60;44.36;94407.81;5113341;28;20027;-70
2022/04/24 07:53:30;;;;;;;6.18;2.88;;;;;;;17.68;44.39;94405.09;5131775;27;20039;-70
2022/04/24 07:55:55;;;;;;;7.13;3.30;;;;;;;17.69;44.73;94401.50;5130255;27;20031;-71
2022/04/24 07:58:20;;;;;;;10.63;5.63;;;;;;;17.82;44.89;94396.44;5130517;28;20420;-70
2022/04/24 08:00:47;;;;;;;11.27;7.07;;;;;;;17.92;44.38;94400.63;5130338;27;20023;-70
2022/04/24 08:03:13;;;;;;;13.05;7.22;;;;;;;18.01;44.84;94402.16;5113422;28;20091;-70
2022/04/24 08:05:40;;;;;;;9.15;5.00;;;;;;;17.89;44.31;94396.53;5131482;27;20019;-71
2022/04/24 08:08:08;;;;;;;6.05;3.55;;;;;;;18.01;44.30;94386.38;5114756;27;20038;-70
2022/04/24 08:10:35;;;;;;;6.05;3.35;;;;;;;18.12;44.73;94385.09;5117379;27;20530;-70
2022/04/24 08:13:04;;;;;;;9.52;3.70;;;;;;;18.16;44.84;94384.53;5100165;27;20085;-70
2022/04/24 08:15:30;;;;;;;6.40;3.30;;;;;;;18.24;44.09;94366.03;5135315;27;20031;-71
2022/04/24 08:17:55;;;;;;;10.50;5.03;;;;;;;18.46;44.76;94373.97;5135394;27;20031;-71
2022/04/24 08:20:21;;;;;;;6.85;3.53;;;;;;;18.59;44.84;94366.22;5135356;27;20031;-70
2022/04/24 08:22:50;;;;;;;7.78;3.58;;;;;;;18.71;44.35;94369.97;5133796;27;20031;-71
2022/04/24 08:25:17;;;;;;;7.47;3.28;;;;;;;18.86;43.41;94369.13;5134016;27;20576;-70
2022/04/24 08:27:43;;;;;;;6.32;2.78;;;;;;;18.95;43.32;94360.13;5135003;27;20031;-70
2022/04/24 08:30:09;;;;;;;9.60;5.43;;;;;;;19.10;42.40;94358.19;5133981;27;20042;-70
2022/04/24 08:32:35;;;;;;;7.90;4.10;;;;;;;19.24;41.64;94358.31;5133776;27;20030;-70
2022/04/24 08:35:00;;;;;;;6.38;2.78;;;;;;;19.19;41.74;94354.44;5133773;27;20055;-70
2022/04/24 08:37:26;;;;;;;13.10;6.00;;;;;;;19.36;41.73;94354.13;5099526;27;20469;-70
2022/04/24 08:39:52;;;;;;;10.23;5.38;;;;;;;19.35;41.64;94349.88;5133678;27;20035;-71
2022/04/24 08:42:23;;;;;;;8.35;2.97;;;;;;;19.36;41.03;94356.75;5133886;27;20024;-70
2022/04/24 08:44:50;;;;;;;7.68;3.47;;;;;;;19.42;41.53;94340.22;5134820;27;20038;-71
2022/04/24 08:47:16;;;;;;;8.18;3.30;;;;;;;19.56;41.79;94343.75;5116606;27;20515;-71
2022/04/24 08:49:41;;;;;;;8.23;3.78;;;;;;;19.48;42.05;94342.06;5099320;27;20031;-70
2022/04/24 08:52:07;;;;;;;8.27;6.57;;;;;;;19.50;42.54;94350.59;5133536;27;20083;-71
2022/04/24 08:54:32;;;;;;;8.18;4.45;;;;;;;19.56;41.39;94343.75;5133519;27;20088;-71
2022/04/24 08:56:58;;;;;;;9.45;4.72;;;;;;;19.54;42.16;94340.50;5133359;27;20508;-71
2022/04/24 08:59:23;;;;;;;8.00;3.83;;;;;;;19.65;42.59;94332.03;5099302;27;20416;-71
2022/04/24 09:01:50;;;;;;;8.63;3.35;;;;;;;19.75;41.04;94329.91;5099149;27;20083;-71
2022/04/24 09:04:16;;;;;;;7.13;3.33;;;;;;;19.79;42.17;94335.59;5110444;27;20039;-70
2022/04/24 09:06:42;;;;;;;7.70;3.00;;;;;;;19.83;41.36;94329.72;5122792;27;20050;-71
2022/04/24 09:09:07;;;;;;;10.43;3.28;;;;;;;19.86;41.45;94331.16;5125058;27;20469;-71
2022/04/24 09:11:33;;;;;;;8.10;3.35;;;;;;;19.93;41.83;94325.94;5133350;27;20083;-70
2022/04/24 09:16:53;;;;;;;9.95;3.72;;;;;;;20.11;41.58;94323.56;5127269;27;20042;-70
2022/04/24 09:19:20;;;;;;;7.82;4.20;;;;;;;20.19;40.87;94327.84;5114578;28;20408;-71
2022/04/24 09:21:46;;;;;;;7.68;3.95;;;;;;;20.06;40.43;94303.06;5130244;27;20058;-70
2022/04/24 09:24:12;;;;;;;8.57;3.95;;;;;;;20.21;40.91;94315.28;5111264;27;20047;-71
2022/04/24 09:26:37;;;;;;;8.75;3.33;;;;;;;20.34;39.78;94306.59;5114890;27;20497;-72
2022/04/24 09:29:10;;;;;;;5.43;2.90;;;;;;;20.45;40.53;94309.47;5132544;27;20520;-71
2022/04/24 09:31:36;;;;;;;6.53;3.15;;;;;;;20.49;40.70;94301.97;5132294;27;20031;-71
2022/04/24 09:34:01;;;;;;;7.90;3.42;;;;;;;20.53;40.16;94292.66;5111703;28;20080;-71
2022/04/24 09:36:26;;;;;;;6.38;3.30;;;;;;;20.63;41.31;94294.91;5113022;28;20036;-71
2022/04/24 09:38:52;;;;;;;9.63;4.70;;;;;;;20.75;41.32;94282.72;5117438;27;20027;-72
2022/04/24 09:41:21;;;;;;;7.22;3.92;;;;;;;20.95;39.89;94286.22;5132356;27;20027;-71
2022/04/24 09:43:47;;;;;;;13.52;4.85;;;;;;;20.99;39.68;94286.59;5114761;27;20039;-70
2022/04/24 09:46:13;;;;;;;6.97;3.00;;;;;;;20.90;39.22;94296.56;5108362;27;20031;-71
2022/04/24 09:48:38;;;;;;;8.27;4.30;;;;;;;20.88;40.49;94288.03;5117193;27;20031;-70
2022/04/24 09:51:04;;;;;;;9.80;3.63;;;;;;;20.92;39.74;94275.22;5115647;27;20038;-69
2022/04/24 09:53:29;;;;;;;7.45;3.63;;;;;;;20.90;39.83;94269.34;5120739;27;20080;-69
2022/04/24 09:55:55;;;;;;;7.30;3.30;;;;;;;20.94;39.83;94266.09;5116321;27;20027;-69
2022/04/24 09:58:23;;;;;;;6.13;3.20;;;;;;;21.08;39.18;94272.16;5130222;27;20031;-68
2022/04/24 10:00:50;;;;;;;7.85;3.08;;;;;;;21.14;39.17;94265.25;5124343;27;20450;-70
2022/04/24 10:03:16;;;;;;;11.10;3.47;;;;;;;21.14;38.81;94275.81;5119686;27;20512;-70
2022/04/24 10:05:43;;;;;;;7.03;3.30;;;;;;;21.20;39.45;94248.56;5104179;27;20019;-70
2022/04/24 10:08:08;;;;;;;8.77;3.42;;;;;;;21.30;38.49;94251.63;5111392;27;20354;-68
2022/04/24 10:10:34;;;;;;;9.23;3.35;;;;;;;21.37;37.94;94259.56;5105030;27;20516;-68
2022/04/24 10:13:00;;;;;;;10.88;3.33;;;;;;;21.38;39.00;94246.16;5127759;27;20480;-67
2022/04/24 10:15:26;;;;;;;9.05;3.00;;;;;;;21.46;38.79;94244.31;5096844;28;20024;-67
2022/04/24 10:17:54;;;;;;;10.23;2.90;;;;;;;21.54;39.07;94238.81;5111311;27;20092;-67
2022/04/24 10:20:44;;;;;;;6.30;2.90;;;;;;;21.60;38.56;94237.97;5111144;28;20047;-67
2022/04/24 10:23:10;;;;;;;5.82;2.80;;;;;;;21.70;38.57;94232.22;5112230;28;20063;-67
2022/04/24 10:25:37;;;;;;;6.13;2.72;;;;;;;21.81;38.67;94224.47;5111064;28;20027;-67
2022/04/24 10:28:09;;;;;;;7.40;3.22;;;;;;;21.85;36.77;94220.38;5110903;28;20030;-67
2022/04/24 10:30:35;;;;;;;7.47;2.58;;;;;;;21.79;36.83;94210.63;5111910;28;20031;-72
2022/04/24 10:33:22;;;;;;;6.22;2.53;;;;;;;21.71;37.36;94221.44;5110287;28;20042;-67
2022/04/24 10:35:51;;;;;;;6.72;3.00;;;;;;;21.68;37.54;94221.06;5110894;28;20037;-67
2022/04/24 10:38:17;;;;;;;5.70;2.35;;;;;;;21.70;36.92;94222.44;5112203;28;20063;-68
2022/04/24 10:40:55;;;;;;;5.20;2.60;;;;;;;21.78;37.67;94216.94;5110786;28;20123;-67
2022/04/24 10:43:21;;;;;;;8.27;2.88;;;;;;;21.89;37.33;94214.66;5110958;28;20035;-67
2022/04/24 10:45:47;;;;;;;7.50;2.80;;;;;;;21.91;36.85;94207.34;5117368;27;20385;-67
2022/04/24 10:48:16;;;;;;;7.95;2.75;;;;;;;21.97;36.37;94206.47;5130719;27;20031;-67
2022/04/24 10:50:50;;;;;;;6.80;2.58;;;;;;;21.99;35.85;94204.44;5129887;27;20105;-67
2022/04/24 10:53:15;;;;;;;8.38;3.05;;;;;;;22.03;36.63;94197.69;5132437;27;20074;-67
2022/04/24 10:55:42;;;;;;;5.32;2.50;;;;;;;22.10;36.12;94198.47;5113925;27;20066;-67
2022/04/24 10:58:07;;;;;;;6.30;2.90;;;;;;;22.20;35.88;94190.09;5113831;27;20081;-67
2022/04/24 11:00:34;;;;;;;6.57;2.50;;;;;;;22.28;34.94;94195.94;5131035;27;20054;-67
2022/04/24 11:03:16;;;;;;;9.52;3.00;;;;;;;22.25;34.36;94185.78;5130967;27;20035;-67
2022/04/24 11:05:46;;;;;;;6.65;2.80;;;;;;;22.33;35.19;94190.00;5131056;27;20396;-67
2022/04/24 11:08:20;;;;;;;5.07;2.67;;;;;;;22.44;34.99;94188.50;5096749;27;20039;-67
2022/04/24 11:10:48;;;;;;;8.00;3.10;;;;;;;22.44;35.23;94186.66;5115016;27;20091;-67
2022/04/24 11:13:18;;;;;;;5.43;2.35;;;;;;;22.54;34.42;94186.19;5130847;27;20045;-67
2022/04/24 11:15:45;;;;;;;5.63;2.33;;;;;;;22.59;34.53;94185.53;5113709;27;20468;-67
2022/04/24 11:18:21;;;;;;;6.65;2.47;;;;;;;22.57;35.60;94190.25;5113568;27;20045;-67
2022/04/24 11:20:54;;;;;;;5.30;2.22;;;;;;;22.68;34.50;94182.41;5130739;27;20102;-67
2022/04/24 11:23:20;;;;;;;6.07;2.13;;;;;;;22.67;33.34;94170.19;5131672;27;20116;-67
2022/04/24 11:25:45;;;;;;;10.95;4.15;;;;;;;22.75;34.82;94161.16;5130655;27;20024;-68
2022/04/24 11:28:11;;;;;;;7.28;2.60;;;;;;;22.77;34.04;94155.66;5130684;27;20080;-67
2022/04/24 11:30:38;;;;;;;10.02;3.22;;;;;;;22.80;34.57;94155.22;5096510;28;20476;-67
2022/04/24 11:33:05;;;;;;;6.82;2.75;;;;;;;22.90;34.85;94152.88;5130419;27;20081;-67